sensor_id;sensor_type;location;lat;lon;timestamp;pressure;altitude;pressure_sealevel;temperature;humidity
23679;BME280;12016;51.668;6.874;2023-01-29T00:01:07;102807.66;;;-0.32;70.45
23679;BME280;12016;51.668;6.874;2023-01-29T00:07:11;102401.31;;;-2.89;70.76
23679;BME280;12016;51.668;6.874;2023-01-29T00:13:21;102413.03;;;-2.77;70.36
23679;BME280;12016;51.668;6.874;2023-01-29T00:19:25;102794.44;;;-0.32;70.42
23679;BME280;12016;51.668;6.874;2023-01-29T00:25:35;102632.69;;;-1.29;70.60
23679;BME280;12016;51.668;6.874;2023-01-29T00:31:37;102776.72;;;-0.32;70.22
23679;BME280;12016;51.668;6.874;2023-01-29T00:37:47;102327.16;;;-3.15;70.20
23679;BME280;12016;51.668;6.874;2023-01-29T00:43:49;102785.41;;;-0.17;70.26
23679;BME280;12016;51.668;6.874;2023-01-29T00:50:18;102695.09;;;-1.14;70.72
23679;BME280;12016;51.668;6.874;2023-01-29T00:56:21;102738.38;;;-0.36;70.46
23679;BME280;12016;51.668;6.874;2023-01-29T01:02:26;102776.75;;;-0.04;70.19
23679;BME280;12016;51.668;6.874;2023-01-29T01:08:47;102766.88;;;-0.17;70.45
23679;BME280;12016;51.668;6.874;2023-01-29T01:15:12;102748.84;;;-0.49;71.19
23679;BME280;12016;51.668;6.874;2023-01-29T01:21:15;102270.03;;;-3.59;71.85
23679;BME280;12016;51.668;6.874;2023-01-29T01:27:19;102148.53;;;-4.59;72.77
23679;BME280;12016;51.668;6.874;2023-01-29T01:33:22;102142.38;;;-4.37;72.49
23679;BME280;12016;51.668;6.874;2023-01-29T01:39:25;102729.84;;;-0.81;73.31
23679;BME280;12016;51.668;6.874;2023-01-29T01:51:38;102633.81;;;-1.89;73.48
23679;BME280;12016;51.668;6.874;2023-01-29T01:57:44;102746.53;;;-0.59;73.07
23679;BME280;12016;51.668;6.874;2023-01-29T02:03:55;102195.31;;;-4.17;72.18
23679;BME280;12016;51.668;6.874;2023-01-29T02:10:24;102765.75;;;-0.50;71.85
23679;BME280;12016;51.668;6.874;2023-01-29T02:16:40;102784.22;;;-0.78;73.66
23679;BME280;12016;51.668;6.874;2023-01-29T02:23:13;102751.06;;;-0.74;73.95
23679;BME280;12016;51.668;6.874;2023-01-29T02:29:27;102345.75;;;-3.61;73.33
23679;BME280;12016;51.668;6.874;2023-01-29T02:35:44;102753.47;;;-0.58;73.31
23679;BME280;12016;51.668;6.874;2023-01-29T02:41:54;102755.69;;;-0.40;72.63
23679;BME280;12016;51.668;6.874;2023-01-29T02:48:03;102761.84;;;-0.33;71.90
23679;BME280;12016;51.668;6.874;2023-01-29T03:00:28;102758.53;;;-0.42;72.23
23679;BME280;12016;51.668;6.874;2023-01-29T03:06:36;102071.91;;;-4.71;71.64
23679;BME280;12016;51.668;6.874;2023-01-29T03:12:39;102824.94;;;-0.37;71.94
23679;BME280;12016;51.668;6.874;2023-01-29T03:18:47;102232.72;;;-3.63;71.83
23679;BME280;12016;51.668;6.874;2023-01-29T03:24:57;102545.16;;;-1.62;71.84
23679;BME280;12016;51.668;6.874;2023-01-29T03:31:21;102772.53;;;-0.20;71.92
23679;BME280;12016;51.668;6.874;2023-01-29T03:37:44;102225.28;;;-3.59;72.05
23679;BME280;12016;51.668;6.874;2023-01-29T03:56:06;102748.44;;;-0.04;72.38
23679;BME280;12016;51.668;6.874;2023-01-29T04:02:18;102198.13;;;-3.74;72.41
23679;BME280;12016;51.668;6.874;2023-01-29T04:08:33;102608.09;;;-0.87;72.90
23679;BME280;12016;51.668;6.874;2023-01-29T04:14:37;102620.56;;;-1.02;73.61
23679;BME280;12016;51.668;6.874;2023-01-29T04:20:40;102305.63;;;-3.19;72.90
23679;BME280;12016;51.668;6.874;2023-01-29T04:39:21;102670.41;;;-0.57;72.55
23679;BME280;12016;51.668;6.874;2023-01-29T04:45:53;102695.31;;;-0.23;73.64
23679;BME280;12016;51.668;6.874;2023-01-29T04:52:16;102689.91;;;-0.09;73.69
23679;BME280;12016;51.668;6.874;2023-01-29T04:58:53;102678.31;;;-0.08;73.75
23679;BME280;12016;51.668;6.874;2023-01-29T05:04:58;102660.44;;;0.01;73.70
23679;BME280;12016;51.668;6.874;2023-01-29T05:11:00;101986.75;;;-4.25;73.44
23679;BME280;12016;51.668;6.874;2023-01-29T05:17:04;102319.84;;;-2.05;73.47
23679;BME280;12016;51.668;6.874;2023-01-29T05:23:18;102479.38;;;-1.01;73.89
23679;BME280;12016;51.668;6.874;2023-01-29T05:29:20;102635.44;;;0.10;73.97
23679;BME280;12016;51.668;6.874;2023-01-29T05:35:22;102375.34;;;-1.50;73.63
23679;BME280;12016;51.668;6.874;2023-01-29T05:41:24;102499.78;;;-0.67;73.71
23679;BME280;12016;51.668;6.874;2023-01-29T05:47:26;102582.19;;;-0.02;73.07
23679;BME280;12016;51.668;6.874;2023-01-29T05:53:28;102656.91;;;0.28;73.68
23679;BME280;12016;51.668;6.874;2023-01-29T05:59:30;102471.44;;;-1.01;73.99
23679;BME280;12016;51.668;6.874;2023-01-29T06:05:31;102436.78;;;-1.20;73.92
23679;BME280;12016;51.668;6.874;2023-01-29T06:11:33;102677.06;;;0.23;73.90
23679;BME280;12016;51.668;6.874;2023-01-29T06:17:35;102684.47;;;0.41;73.82
23679;BME280;12016;51.668;6.874;2023-01-29T06:23:37;102499.88;;;-0.82;73.76
23679;BME280;12016;51.668;6.874;2023-01-29T06:29:39;102577.88;;;-0.44;74.16
23679;BME280;12016;51.668;6.874;2023-01-29T06:35:41;102515.47;;;-0.66;74.04
23679;BME280;12016;51.668;6.874;2023-01-29T06:41:43;101989.50;;;-3.98;74.19
23679;BME280;12016;51.668;6.874;2023-01-29T06:47:46;102674.06;;;0.39;74.27
23679;BME280;12016;51.668;6.874;2023-01-29T06:53:47;102634.19;;;0.06;73.54
23679;BME280;12016;51.668;6.874;2023-01-29T06:59:49;102521.84;;;-0.54;73.38
23679;BME280;12016;51.668;6.874;2023-01-29T07:05:51;102225.63;;;-2.54;73.45
23679;BME280;12016;51.668;6.874;2023-01-29T07:11:53;102659.91;;;0.19;74.46
23679;BME280;12016;51.668;6.874;2023-01-29T07:17:58;102659.63;;;0.42;74.15
23679;BME280;12016;51.668;6.874;2023-01-29T07:24:00;102673.94;;;0.54;73.81
23679;BME280;12016;51.668;6.874;2023-01-29T07:30:02;102636.69;;;0.21;74.09
23679;BME280;12016;51.668;6.874;2023-01-29T07:36:08;102675.19;;;0.17;74.65
23679;BME280;12016;51.668;6.874;2023-01-29T07:42:10;102485.78;;;-0.89;74.90
23679;BME280;12016;51.668;6.874;2023-01-29T07:48:12;102366.50;;;-1.63;74.67
23679;BME280;12016;51.668;6.874;2023-01-29T07:54:17;102659.97;;;0.25;74.87
23679;BME280;12016;51.668;6.874;2023-01-29T08:00:19;102670.22;;;0.42;75.14
23679;BME280;12016;51.668;6.874;2023-01-29T08:06:21;102643.69;;;0.35;74.75
23679;BME280;12016;51.668;6.874;2023-01-29T08:12:23;102421.13;;;-1.15;74.61
23679;BME280;12016;51.668;6.874;2023-01-29T08:18:25;102635.56;;;0.43;75.16
23679;BME280;12016;51.668;6.874;2023-01-29T08:24:27;102453.78;;;-0.66;75.02
23679;BME280;12016;51.668;6.874;2023-01-29T08:30:33;102646.44;;;0.61;75.07
23679;BME280;12016;51.668;6.874;2023-01-29T08:36:35;102626.69;;;0.64;75.10
23679;BME280;12016;51.668;6.874;2023-01-29T08:42:37;102230.50;;;-1.74;74.62
23679;BME280;12016;51.668;6.874;2023-01-29T08:48:38;102627.50;;;0.71;74.84
23679;BME280;12016;51.668;6.874;2023-01-29T08:54:40;102614.03;;;0.73;74.88
23679;BME280;12016;51.668;6.874;2023-01-29T09:00:42;102274.25;;;-1.30;74.89
23679;BME280;12016;51.668;6.874;2023-01-29T09:06:44;102424.75;;;-0.47;74.98
23679;BME280;12016;51.668;6.874;2023-01-29T09:12:45;102424.97;;;-0.42;75.26
23679;BME280;12016;51.668;6.874;2023-01-29T09:18:47;102574.25;;;0.73;75.00
23679;BME280;12016;51.668;6.874;2023-01-29T09:24:49;102578.97;;;0.77;75.28
23679;BME280;12016;51.668;6.874;2023-01-29T09:30:51;102576.91;;;0.79;74.55
23679;BME280;12016;51.668;6.874;2023-01-29T09:36:53;102470.28;;;-0.10;75.33
23679;BME280;12016;51.668;6.874;2023-01-29T09:43:18;102480.91;;;0.03;74.15
23679;BME280;12016;51.668;6.874;2023-01-29T09:55:36;102580.59;;;0.98;73.94
23679;BME280;12016;51.668;6.874;2023-01-29T10:09:08;102578.16;;;0.90;74.25
23679;BME280;12016;51.668;6.874;2023-01-29T10:15:05;102587.13;;;1.22;73.32
23679;BME280;12016;51.668;6.874;2023-01-29T10:27:48;102576.75;;;1.14;73.28
23679;BME280;12016;51.668;6.874;2023-01-29T10:33:53;102562.44;;;1.15;73.28
23679;BME280;12016;51.668;6.874;2023-01-29T10:40:31;102512.84;;;0.82;73.09
23679;BME280;12016;51.668;6.874;2023-01-29T10:47:39;102550.59;;;1.11;73.67
23679;BME280;12016;51.668;6.874;2023-01-29T10:59:48;102441.25;;;0.69;73.71
23679;BME280;12016;51.668;6.874;2023-01-29T11:06:01;102525.88;;;1.23;73.15
23679;BME280;12016;51.668;6.874;2023-01-29T11:12:21;102455.06;;;1.11;72.54
23679;BME280;12016;51.668;6.874;2023-01-29T11:18:47;102518.03;;;1.68;72.21
23679;BME280;12016;51.668;6.874;2023-01-29T11:25:14;102374.53;;;0.85;72.31
23679;BME280;12016;51.668;6.874;2023-01-29T11:31:25;102541.91;;;1.81;71.66
23679;BME280;12016;51.668;6.874;2023-01-29T11:37:38;102480.28;;;1.46;71.56
23679;BME280;12016;51.668;6.874;2023-01-29T11:43:40;102196.09;;;-0.13;72.61
23679;BME280;12016;51.668;6.874;2023-01-29T11:49:46;102468.91;;;1.84;72.14
23679;BME280;12016;51.668;6.874;2023-01-29T11:55:49;102399.75;;;1.59;71.57
23679;BME280;12016;51.668;6.874;2023-01-29T12:01:52;102355.75;;;1.38;71.84
23679;BME280;12016;51.668;6.874;2023-01-29T12:07:56;102411.13;;;2.10;72.63
23679;BME280;12016;51.668;6.874;2023-01-29T12:14:03;102382.25;;;1.83;72.26
23679;BME280;12016;51.668;6.874;2023-01-29T12:20:11;102308.06;;;1.56;71.40
23679;BME280;12016;51.668;6.874;2023-01-29T12:26:29;102151.78;;;0.72;71.58
23679;BME280;12016;51.668;6.874;2023-01-29T12:39:00;102137.38;;;0.93;71.11
23679;BME280;12016;51.668;6.874;2023-01-29T12:45:06;102249.44;;;1.83;71.53
23679;BME280;12016;51.668;6.874;2023-01-29T12:51:17;102302.69;;;2.19;71.04
23679;BME280;12016;51.668;6.874;2023-01-29T13:09:38;101877.91;;;-0.41;70.44
23679;BME280;12016;51.668;6.874;2023-01-29T13:15:43;102297.66;;;2.54;70.25
23679;BME280;12016;51.668;6.874;2023-01-29T13:21:46;102336.78;;;2.47;70.83
23679;BME280;12016;51.668;6.874;2023-01-29T13:27:49;102295.63;;;2.49;71.27
23679;BME280;12016;51.668;6.874;2023-01-29T13:40:32;102288.13;;;2.46;69.70
23679;BME280;12016;51.668;6.874;2023-01-29T13:46:39;102093.69;;;0.95;70.46
23679;BME280;12016;51.668;6.874;2023-01-29T13:52:52;102286.50;;;2.45;70.04
23679;BME280;12016;51.668;6.874;2023-01-29T13:58:56;102271.56;;;2.44;71.24
23679;BME280;12016;51.668;6.874;2023-01-29T14:11:34;102265.13;;;2.52;70.37
23679;BME280;12016;51.668;6.874;2023-01-29T14:17:36;102174.72;;;1.97;70.39
23679;BME280;12016;51.668;6.874;2023-01-29T14:23:46;102246.44;;;2.40;70.73
23679;BME280;12016;51.668;6.874;2023-01-29T14:29:51;102245.13;;;2.49;71.36
23679;BME280;12016;51.668;6.874;2023-01-29T14:36:04;102241.72;;;2.42;71.49
23679;BME280;12016;51.668;6.874;2023-01-29T14:48:46;102233.22;;;2.52;70.42
23679;BME280;12016;51.668;6.874;2023-01-29T14:54:49;101947.91;;;0.64;70.69
23679;BME280;12016;51.668;6.874;2023-01-29T15:00:54;102223.63;;;2.51;70.88
23679;BME280;12016;51.668;6.874;2023-01-29T15:07:02;102078.91;;;1.56;71.24
23679;BME280;12016;51.668;6.874;2023-01-29T15:19:28;102175.84;;;2.26;70.84
23679;BME280;12016;51.668;6.874;2023-01-29T15:25:36;102114.88;;;1.95;69.87
23679;BME280;12016;51.668;6.874;2023-01-29T15:31:47;102230.63;;;2.64;70.31
23679;BME280;12016;51.668;6.874;2023-01-29T15:38:20;102092.34;;;1.97;70.83
23679;BME280;12016;51.668;6.874;2023-01-29T15:44:22;102198.13;;;2.62;71.08
23679;BME280;12016;51.668;6.874;2023-01-29T15:50:24;102197.31;;;2.61;70.86
23679;BME280;12016;51.668;6.874;2023-01-29T15:56:33;102166.34;;;2.67;71.01
23679;BME280;12016;51.668;6.874;2023-01-29T16:02:39;102130.63;;;2.44;70.68
23679;BME280;12016;51.668;6.874;2023-01-29T16:08:46;101763.09;;;0.28;70.38
23679;BME280;12016;51.668;6.874;2023-01-29T16:14:49;101936.34;;;1.38;69.43
23679;BME280;12016;51.668;6.874;2023-01-29T16:20:53;102147.88;;;2.72;70.45
23679;BME280;12016;51.668;6.874;2023-01-29T16:26:58;101919.38;;;1.21;70.04
23679;BME280;12016;51.668;6.874;2023-01-29T16:33:02;102031.59;;;2.01;70.06
23679;BME280;12016;51.668;6.874;2023-01-29T16:39:32;102058.88;;;2.26;70.23
23679;BME280;12016;51.668;6.874;2023-01-29T16:45:34;102124.06;;;2.77;70.79
23679;BME280;12016;51.668;6.874;2023-01-29T16:51:38;101994.66;;;1.81;71.17
23679;BME280;12016;51.668;6.874;2023-01-29T16:57:40;102026.22;;;2.07;70.63
23679;BME280;12016;51.668;6.874;2023-01-29T17:03:43;102116.22;;;2.82;70.49
23679;BME280;12016;51.668;6.874;2023-01-29T17:09:47;101851.47;;;1.31;71.42
23679;BME280;12016;51.668;6.874;2023-01-29T17:15:58;101637.47;;;-0.19;71.00
23679;BME280;12016;51.668;6.874;2023-01-29T17:22:00;101986.75;;;2.23;70.85
23679;BME280;12016;51.668;6.874;2023-01-29T17:28:05;102120.31;;;2.96;71.11
23679;BME280;12016;51.668;6.874;2023-01-29T17:34:12;101895.00;;;1.78;70.67
23679;BME280;12016;51.668;6.874;2023-01-29T17:40:32;101962.38;;;2.26;71.10
23679;BME280;12016;51.668;6.874;2023-01-29T17:46:36;102054.91;;;3.00;71.02
23679;BME280;12016;51.668;6.874;2023-01-29T17:52:38;101605.41;;;0.25;70.23
23679;BME280;12016;51.668;6.874;2023-01-29T17:58:40;101811.19;;;1.53;70.87
23679;BME280;12016;51.668;6.874;2023-01-29T18:04:42;101952.84;;;2.06;69.95
23679;BME280;12016;51.668;6.874;2023-01-29T18:11:01;102056.91;;;3.05;71.08
23679;BME280;12016;51.668;6.874;2023-01-29T18:17:08;102149.59;;;2.96;71.70
23679;BME280;12016;51.668;6.874;2023-01-29T18:23:24;101966.81;;;1.84;72.92
23679;BME280;12016;51.668;6.874;2023-01-29T18:29:52;101448.38;;;-1.21;72.49
23679;BME280;12016;51.668;6.874;2023-01-29T18:35:59;102007.69;;;2.72;73.15
23679;BME280;12016;51.668;6.874;2023-01-29T18:42:02;101480.38;;;-0.86;72.23
23679;BME280;12016;51.668;6.874;2023-01-29T18:48:08;101946.56;;;1.71;72.86
23679;BME280;12016;51.668;6.874;2023-01-29T18:54:20;102056.97;;;2.86;72.94
23679;BME280;12016;51.668;6.874;2023-01-29T19:00:22;101388.47;;;-1.09;71.98
23679;BME280;12016;51.668;6.874;2023-01-29T19:06:25;101777.19;;;1.85;71.32
23679;BME280;12016;51.668;6.874;2023-01-29T19:12:34;102072.50;;;3.01;71.35
23679;BME280;12016;51.668;6.874;2023-01-29T19:18:39;102107.69;;;3.03;71.53
23679;BME280;12016;51.668;6.874;2023-01-29T19:24:44;101928.69;;;2.96;71.38
23679;BME280;12016;51.668;6.874;2023-01-29T19:30:46;101919.16;;;3.12;70.99
23679;BME280;12016;51.668;6.874;2023-01-29T19:36:48;101928.53;;;3.14;70.42
23679;BME280;12016;51.668;6.874;2023-01-29T19:42:54;101903.78;;;3.02;70.92
23679;BME280;12016;51.668;6.874;2023-01-29T19:49:00;101767.19;;;2.33;70.24
23679;BME280;12016;51.668;6.874;2023-01-29T19:55:06;101890.13;;;3.22;71.14
23679;BME280;12016;51.668;6.874;2023-01-29T20:01:16;101898.56;;;3.19;70.59
23679;BME280;12016;51.668;6.874;2023-01-29T20:07:19;101880.31;;;3.11;71.67
23679;BME280;12016;51.668;6.874;2023-01-29T20:13:21;101862.56;;;3.16;71.52
23679;BME280;12016;51.668;6.874;2023-01-29T20:19:23;101842.44;;;3.20;71.96
23679;BME280;12016;51.668;6.874;2023-01-29T20:25:25;101558.03;;;1.47;71.85
23679;BME280;12016;51.668;6.874;2023-01-29T20:31:27;101559.09;;;1.46;72.17
23679;BME280;12016;51.668;6.874;2023-01-29T20:37:29;101797.00;;;3.10;72.70
23679;BME280;12016;51.668;6.874;2023-01-29T20:43:31;101826.19;;;3.34;73.29
23679;BME280;12016;51.668;6.874;2023-01-29T20:49:33;101566.69;;;1.66;73.70
23679;BME280;12016;51.668;6.874;2023-01-29T20:55:35;101739.28;;;2.59;74.71
23679;BME280;12016;51.668;6.874;2023-01-29T21:01:36;101776.75;;;3.09;74.78
23679;BME280;12016;51.668;6.874;2023-01-29T21:07:40;101584.44;;;1.89;75.16
23679;BME280;12016;51.668;6.874;2023-01-29T21:13:42;101632.66;;;2.32;75.14
23679;BME280;12016;51.668;6.874;2023-01-29T21:19:44;101634.19;;;2.17;75.20
23679;BME280;12016;51.668;6.874;2023-01-29T21:25:46;101829.72;;;3.39;74.91
23679;BME280;12016;51.668;6.874;2023-01-29T21:31:48;101833.31;;;3.45;74.90
23679;BME280;12016;51.668;6.874;2023-01-29T21:37:50;101735.16;;;2.80;75.08
23679;BME280;12016;51.668;6.874;2023-01-29T21:43:52;101702.88;;;2.48;75.32
23679;BME280;12016;51.668;6.874;2023-01-29T21:49:53;101644.34;;;2.60;75.88
23679;BME280;12016;51.668;6.874;2023-01-29T21:56:00;101557.50;;;1.97;75.93
23679;BME280;12016;51.668;6.874;2023-01-29T22:02:02;101820.75;;;3.57;76.03
23679;BME280;12016;51.668;6.874;2023-01-29T22:08:04;101619.41;;;1.97;75.99
23679;BME280;12016;51.668;6.874;2023-01-29T22:14:09;101452.91;;;1.46;76.60
23679;BME280;12016;51.668;6.874;2023-01-29T22:20:12;101790.25;;;3.65;76.51
23679;BME280;12016;51.668;6.874;2023-01-29T22:26:17;101381.69;;;0.91;76.88
23679;BME280;12016;51.668;6.874;2023-01-29T22:32:19;101487.59;;;1.79;77.47
23679;BME280;12016;51.668;6.874;2023-01-29T22:38:21;101762.56;;;3.82;77.01
23679;BME280;12016;51.668;6.874;2023-01-29T22:44:25;101479.88;;;2.23;77.63
23679;BME280;12016;51.668;6.874;2023-01-29T22:50:28;101702.31;;;3.81;77.56
23679;BME280;12016;51.668;6.874;2023-01-29T22:56:29;101663.06;;;3.77;78.13
23679;BME280;12016;51.668;6.874;2023-01-29T23:02:31;101618.91;;;3.81;78.31
23679;BME280;12016;51.668;6.874;2023-01-29T23:08:33;101626.66;;;3.82;78.46
23679;BME280;12016;51.668;6.874;2023-01-29T23:14:34;101672.44;;;3.96;78.54
23679;BME280;12016;51.668;6.874;2023-01-29T23:20:36;101400.41;;;2.55;78.63
23679;BME280;12016;51.668;6.874;2023-01-29T23:26:38;101378.44;;;2.43;79.16
23679;BME280;12016;51.668;6.874;2023-01-29T23:32:59;101630.09;;;4.00;79.04
23679;BME280;12016;51.668;6.874;2023-01-29T23:39:01;101197.78;;;1.42;79.79
23679;BME280;12016;51.668;6.874;2023-01-29T23:45:03;101486.22;;;3.39;80.03
23679;BME280;12016;51.668;6.874;2023-01-29T23:51:05;101591.75;;;4.01;79.79
23679;BME280;12016;51.668;6.874;2023-01-29T23:57:06;101601.88;;;4.04;80.41
